Bronson, Michigan
Current Conditions -  °F | °C
As of 9:14 PM on Saturday 22 Nov 2014 (Local Time) from KOEB Reporting Station
Overcast Overcast  
Wind Chill: 50°   Ceiling: 2900
Heat Index: 50°   Visibility: 10mi
Dew Point: 46°   Wind: 14mph
Humidity: 83%   Direction: 220°SW
Pressure: 29.92"   Gusts: 18mph
Location:  41.87°N, 85.19°W
Report Text: KOEB 230214Z AUTO 22012G16KT 10SM OVC029 10/08 A2992 RMK AO2 T01020075
Loading
Personal Weather Stations






























Interactive Weather Map New forecast layout! Learn more

10-Day Weather Forecast

Advertisements
Track Severe Weather on mobile